PWSweather.com
Personal Weather Stations
Station Observations
OFENA
OfenaIT

OfenaIT

Lat: 42.328, Lon: 13.761

Elevation: 500

Station Type: PCE-FW20

High Low Average
Temperature 96.6°F35.9°C 58.6°F14.8°C 84.4°F29.1°C
Dew Point 38.6°F3.7°C 18.1°F-7.7°C 29.7°F-1.3°C
Winds 7.6 mph 12.2 kmh Calm Calm 3.0 mph SSE4.8 kmh SSE
Wind Gusts 15.2 mph24.5 kmh 1.6 mph2.6 kmh 8.0 mph12.9 kmh
Humidity 21% 11% 14%
Pressure 29.94 in1013.9 mb 29.81 in1009.5 mb -
Precipitation 0.00 in0.0 mm - -
Hour Temp Dew Point Humidity Winds Wind Gusts Pressure Precip Precip Rate Daily Precip Total
09:19 AM 58.6°F14.8°C 18.8°F-7.3°C 21% 3.1 mph NE5.0 kmh NE 3.8 mph6.1 kmh 29.92 in1013.2 mb 0.00 in0.0 mm 0.00 in0.0 mm 0.00 in0.0 mm
09:30 AM 83.5°F28.6°C 31.0°F-0.6°C 15% 1.6 mph S2.6 kmh S 7.6 mph12.2 kmh 29.92 in1013.2 mb 0.00 in0.0 mm 0.00 in0.0 mm 0.00 in0.0 mm
09:40 AM 83.3°F28.5°C 30.9°F-0.6°C 15% 0.7 mph SW1.1 kmh SW 6.9 mph11.1 kmh 29.92 in1013.2 mb 0.00 in0.0 mm 0.00 in0.0 mm 0.00 in0.0 mm
09:50 AM 84.6°F29.2°C 30.2°F-1.0°C 14% 3.1 mph S5.0 kmh S 6.9 mph11.1 kmh 29.91 in1012.9 mb 0.00 in0.0 mm 0.00 in0.0 mm 0.00 in0.0 mm
10:00 AM 87.4°F30.8°C 30.6°F-0.8°C 13% 6.0 mph SE9.7 kmh SE 8.3 mph13.4 kmh 29.91 in1012.9 mb 0.00 in0.0 mm 0.00 in0.0 mm 0.00 in0.0 mm
10:10 AM 87.1°F30.6°C 30.3°F-0.9°C 13% 1.6 mph SSE2.6 kmh SSE 8.3 mph13.4 kmh 29.91 in1012.9 mb 0.00 in0.0 mm 0.00 in0.0 mm 0.00 in0.0 mm
10:20 AM 86.4°F30.2°C 29.8°F-1.2°C 13% 1.6 mph SW2.6 kmh SW 7.6 mph12.2 kmh 29.90 in1012.5 mb 0.00 in0.0 mm 0.00 in0.0 mm 0.00 in0.0 mm
10:30 AM 86.5°F30.3°C 29.9°F-1.2°C 13% 1.6 mph S2.6 kmh S 9.8 mph15.8 kmh 29.91 in1012.9 mb 0.00 in0.0 mm 0.00 in0.0 mm 0.00 in0.0 mm
10:40 AM 87.3°F30.7°C 30.5°F-0.8°C 13% 4.5 mph S7.2 kmh S 8.3 mph13.4 kmh 29.91 in1012.9 mb 0.00 in0.0 mm 0.00 in0.0 mm 0.00 in0.0 mm
10:50 AM 88.2°F31.2°C 29.2°F-1.6°C 12% 1.6 mph S2.6 kmh S 7.6 mph12.2 kmh 29.90 in1012.5 mb 0.00 in0.0 mm 0.00 in0.0 mm 0.00 in0.0 mm
11:00 AM 87.4°F30.8°C 30.6°F-0.8°C 13% 3.8 mph SW6.1 kmh SW 9.2 mph14.8 kmh 29.90 in1012.5 mb 0.00 in0.0 mm 0.00 in0.0 mm 0.00 in0.0 mm
11:10 AM 87.4°F30.8°C 30.6°F-0.8°C 13% 7.6 mph SSW12.2 kmh SSW 9.8 mph15.8 kmh 29.90 in1012.5 mb 0.00 in0.0 mm 0.00 in0.0 mm 0.00 in0.0 mm
11:20 AM 88.7°F31.5°C 29.6°F-1.3°C 12% 3.8 mph S6.1 kmh S 9.2 mph14.8 kmh 29.89 in1012.2 mb 0.00 in0.0 mm 0.00 in0.0 mm 0.00 in0.0 mm
11:30 AM 89.8°F32.1°C 28.3°F-2.1°C 11% 4.5 mph W7.2 kmh W 8.3 mph13.4 kmh 29.88 in1011.9 mb 0.00 in0.0 mm 0.00 in0.0 mm 0.00 in0.0 mm
11:40 AM 90.0°F32.2°C 28.5°F-1.9°C 11% 4.5 mph S7.2 kmh S 9.2 mph14.8 kmh 29.88 in1011.9 mb 0.00 in0.0 mm 0.00 in0.0 mm 0.00 in0.0 mm
11:50 AM 92.3°F33.5°C 38.0°F3.3°C 15% 5.4 mph SSE8.7 kmh SSE 15.2 mph24.5 kmh 29.88 in1011.9 mb 0.00 in0.0 mm 0.00 in0.0 mm 0.00 in0.0 mm
12:00 PM 93.6°F34.2°C 37.3°F2.9°C 14% 3.1 mph SE5.0 kmh SE 11.4 mph18.3 kmh 29.88 in1011.9 mb 0.00 in0.0 mm 0.00 in0.0 mm 0.00 in0.0 mm
12:10 PM 93.0°F33.9°C 38.6°F3.7°C 15% 2.2 mph S3.5 kmh S 9.8 mph15.8 kmh 29.87 in1011.5 mb 0.00 in0.0 mm 0.00 in0.0 mm 0.00 in0.0 mm
12:20 PM 93.0°F33.9°C 38.6°F3.7°C 15% 3.1 mph S5.0 kmh S 9.8 mph15.8 kmh 29.87 in1011.5 mb 0.00 in0.0 mm 0.00 in0.0 mm 0.00 in0.0 mm
12:30 PM 95.4°F35.2°C 36.8°F2.7°C 13% 6.0 mph S9.7 kmh S 8.3 mph13.4 kmh 29.86 in1011.2 mb 0.00 in0.0 mm 0.00 in0.0 mm 0.00 in0.0 mm
12:40 PM 92.5°F33.6°C 38.2°F3.4°C 15% 3.8 mph SSW6.1 kmh SSW 9.2 mph14.8 kmh 29.86 in1011.2 mb 0.00 in0.0 mm 0.00 in0.0 mm 0.00 in0.0 mm
12:50 PM 93.0°F33.9°C 38.6°F3.7°C 15% 2.2 mph WNW3.5 kmh WNW 9.2 mph14.8 kmh 29.86 in1011.2 mb 0.00 in0.0 mm 0.00 in0.0 mm 0.00 in0.0 mm
01:00 PM 92.7°F33.7°C 38.3°F3.5°C 15% 3.1 mph S5.0 kmh S 13.0 mph20.9 kmh 29.86 in1011.2 mb 0.00 in0.0 mm 0.00 in0.0 mm 0.00 in0.0 mm
01:10 PM 94.6°F34.8°C 38.1°F3.4°C 14% 5.4 mph SSW8.7 kmh SSW 11.4 mph18.3 kmh 29.85 in1010.8 mb 0.00 in0.0 mm 0.00 in0.0 mm 0.00 in0.0 mm
01:20 PM 95.9°F35.5°C 37.2°F2.9°C 13% 3.8 mph S6.1 kmh S 10.7 mph17.2 kmh 29.85 in1010.8 mb 0.00 in0.0 mm 0.00 in0.0 mm 0.00 in0.0 mm
01:30 PM 94.1°F34.5°C 37.7°F3.2°C 14% 6.9 mph S11.1 kmh S 11.4 mph18.3 kmh 29.84 in1010.5 mb 0.00 in0.0 mm 0.00 in0.0 mm 0.00 in0.0 mm
01:40 PM 94.8°F34.9°C 38.3°F3.5°C 14% 5.4 mph SSE8.7 kmh SSE 10.7 mph17.2 kmh 29.83 in1010.2 mb 0.00 in0.0 mm 0.00 in0.0 mm 0.00 in0.0 mm
01:50 PM 96.6°F35.9°C 37.8°F3.2°C 13% 3.1 mph SW5.0 kmh SW 10.7 mph17.2 kmh 29.83 in1010.2 mb 0.00 in0.0 mm 0.00 in0.0 mm 0.00 in0.0 mm
02:00 PM 94.1°F34.5°C 37.7°F3.2°C 14% 3.8 mph SSE6.1 kmh SSE 13.0 mph20.9 kmh 29.83 in1010.2 mb 0.00 in0.0 mm 0.00 in0.0 mm 0.00 in0.0 mm
02:10 PM 94.6°F34.8°C 38.1°F3.4°C 14% 7.6 mph S12.2 kmh S 11.4 mph18.3 kmh 29.83 in1010.2 mb 0.00 in0.0 mm 0.00 in0.0 mm 0.00 in0.0 mm
02:20 PM 93.6°F34.2°C 37.3°F2.9°C 14% 3.8 mph S6.1 kmh S 13.0 mph20.9 kmh 29.83 in1010.2 mb 0.00 in0.0 mm 0.00 in0.0 mm 0.00 in0.0 mm
02:30 PM 94.5°F34.7°C 38.0°F3.3°C 14% 1.6 mph S2.6 kmh S 11.4 mph18.3 kmh 29.82 in1009.8 mb 0.00 in0.0 mm 0.00 in0.0 mm 0.00 in0.0 mm
02:40 PM 95.0°F35.0°C 36.5°F2.5°C 13% 4.5 mph S7.2 kmh S 15.2 mph24.5 kmh 29.82 in1009.8 mb 0.00 in0.0 mm 0.00 in0.0 mm 0.00 in0.0 mm
02:50 PM 94.8°F34.9°C 38.3°F3.5°C 14% 5.4 mph S8.7 kmh S 12.1 mph19.5 kmh 29.83 in1010.2 mb 0.00 in0.0 mm 0.00 in0.0 mm 0.00 in0.0 mm
03:00 PM 92.7°F33.7°C 38.3°F3.5°C 15% 4.5 mph SW7.2 kmh SW 12.1 mph19.5 kmh 29.82 in1009.8 mb 0.00 in0.0 mm 0.00 in0.0 mm 0.00 in0.0 mm
03:10 PM 89.1°F31.7°C 29.9°F-1.2°C 12% 2.2 mph S3.5 kmh S 13.6 mph21.9 kmh 29.82 in1009.8 mb 0.00 in0.0 mm 0.00 in0.0 mm 0.00 in0.0 mm
03:20 PM 92.8°F33.8°C 38.5°F3.6°C 15% 4.5 mph S7.2 kmh S 8.3 mph13.4 kmh 29.82 in1009.8 mb 0.00 in0.0 mm 0.00 in0.0 mm 0.00 in0.0 mm
03:30 PM 92.8°F33.8°C 38.5°F3.6°C 15% 3.1 mph S5.0 kmh S 11.4 mph18.3 kmh 29.82 in1009.8 mb 0.00 in0.0 mm 0.00 in0.0 mm 0.00 in0.0 mm
03:40 PM 91.0°F32.8°C 29.3°F-1.5°C 11% 4.5 mph S7.2 kmh S 11.4 mph18.3 kmh 29.82 in1009.8 mb 0.00 in0.0 mm 0.00 in0.0 mm 0.00 in0.0 mm
03:50 PM 89.6°F32.0°C 28.2°F-2.1°C 11% 3.8 mph SSW6.1 kmh SSW 9.8 mph15.8 kmh 29.81 in1009.5 mb 0.00 in0.0 mm 0.00 in0.0 mm 0.00 in0.0 mm
04:00 PM 90.3°F32.4°C 28.8°F-1.8°C 11% 6.0 mph SW9.7 kmh SW 10.7 mph17.2 kmh 29.82 in1009.8 mb 0.00 in0.0 mm 0.00 in0.0 mm 0.00 in0.0 mm
04:10 PM 90.1°F32.3°C 28.6°F-1.9°C 11% 3.8 mph S6.1 kmh S 8.3 mph13.4 kmh 29.81 in1009.5 mb 0.00 in0.0 mm 0.00 in0.0 mm 0.00 in0.0 mm
04:20 PM 91.4°F33.0°C 37.3°F2.9°C 15% 2.2 mph S3.5 kmh S 8.3 mph13.4 kmh 29.81 in1009.5 mb 0.00 in0.0 mm 0.00 in0.0 mm 0.00 in0.0 mm
04:30 PM 88.0°F31.1°C 29.1°F-1.6°C 12% 5.4 mph S8.7 kmh S 12.1 mph19.5 kmh 29.81 in1009.5 mb 0.00 in0.0 mm 0.00 in0.0 mm 0.00 in0.0 mm
04:40 PM 88.9°F31.6°C 29.8°F-1.2°C 12% 6.0 mph SW9.7 kmh SW 9.8 mph15.8 kmh 29.82 in1009.8 mb 0.00 in0.0 mm 0.00 in0.0 mm 0.00 in0.0 mm
04:50 PM 88.2°F31.2°C 29.2°F-1.6°C 12% 2.2 mph S3.5 kmh S 9.2 mph14.8 kmh 29.81 in1009.5 mb 0.00 in0.0 mm 0.00 in0.0 mm 0.00 in0.0 mm
05:00 PM 89.2°F31.8°C 30.1°F-1.1°C 12% 2.2 mph SSE3.5 kmh SSE 6.9 mph11.1 kmh 29.81 in1009.5 mb 0.00 in0.0 mm 0.00 in0.0 mm 0.00 in0.0 mm
05:10 PM 90.7°F32.6°C 29.0°F-1.7°C 11% 3.8 mph S6.1 kmh S 4.5 mph7.2 kmh 29.81 in1009.5 mb 0.00 in0.0 mm 0.00 in0.0 mm 0.00 in0.0 mm
05:20 PM 89.4°F31.9°C 30.2°F-1.0°C 12% 1.6 mph S2.6 kmh S 7.6 mph12.2 kmh 29.81 in1009.5 mb 0.00 in0.0 mm 0.00 in0.0 mm 0.00 in0.0 mm
05:30 PM 87.3°F30.7°C 30.5°F-0.8°C 13% 4.5 mph S7.2 kmh S 9.8 mph15.8 kmh 29.82 in1009.8 mb 0.00 in0.0 mm 0.00 in0.0 mm 0.00 in0.0 mm
05:40 PM 88.9°F31.6°C 29.8°F-1.2°C 12% 3.1 mph SSE5.0 kmh SSE 6.9 mph11.1 kmh 29.81 in1009.5 mb 0.00 in0.0 mm 0.00 in0.0 mm 0.00 in0.0 mm
05:50 PM 86.9°F30.5°C 30.2°F-1.0°C 13% 3.8 mph SSW6.1 kmh SSW 7.6 mph12.2 kmh 29.81 in1009.5 mb 0.00 in0.0 mm 0.00 in0.0 mm 0.00 in0.0 mm
06:00 PM 87.1°F30.6°C 30.3°F-0.9°C 13% 0.7 mph S1.1 kmh S 6.9 mph11.1 kmh 29.81 in1009.5 mb 0.00 in0.0 mm 0.00 in0.0 mm 0.00 in0.0 mm
06:10 PM 87.6°F30.9°C 30.8°F-0.7°C 13% 1.6 mph SSE2.6 kmh SSE 4.5 mph7.2 kmh 29.81 in1009.5 mb 0.00 in0.0 mm 0.00 in0.0 mm 0.00 in0.0 mm
06:20 PM 87.3°F30.7°C 30.5°F-0.8°C 13% 1.6 mph SSE2.6 kmh SSE 4.5 mph7.2 kmh 29.82 in1009.8 mb 0.00 in0.0 mm 0.00 in0.0 mm 0.00 in0.0 mm
06:30 PM 85.1°F29.5°C 30.6°F-0.8°C 14% 0.7 mph SSE1.1 kmh SSE 3.1 mph5.0 kmh 29.82 in1009.8 mb 0.00 in0.0 mm 0.00 in0.0 mm 0.00 in0.0 mm
06:40 PM 82.0°F27.8°C 24.5°F-4.2°C 12% 1.6 mph SE2.6 kmh SE 3.1 mph5.0 kmh 29.82 in1009.8 mb 0.00 in0.0 mm 0.00 in0.0 mm 0.00 in0.0 mm
06:50 PM 79.7°F26.5°C 24.6°F-4.1°C 13% 2.2 mph NE3.5 kmh NE 3.1 mph5.0 kmh 29.83 in1010.2 mb 0.00 in0.0 mm 0.00 in0.0 mm 0.00 in0.0 mm
07:00 PM 77.4°F25.2°C 24.5°F-4.2°C 14% 3.1 mph NE5.0 kmh NE 4.5 mph7.2 kmh 29.83 in1010.2 mb 0.00 in0.0 mm 0.00 in0.0 mm 0.00 in0.0 mm
07:10 PM 76.1°F24.5°C 25.1°F-3.8°C 15% 3.1 mph NE5.0 kmh NE 3.8 mph6.1 kmh 29.83 in1010.2 mb 0.00 in0.0 mm 0.00 in0.0 mm 0.00 in0.0 mm
07:20 PM 75.2°F24.0°C 24.4°F-4.2°C 15% 0.7 mph ENE1.1 kmh ENE 3.8 mph6.1 kmh 29.83 in1010.2 mb 0.00 in0.0 mm 0.00 in0.0 mm 0.00 in0.0 mm
07:30 PM 74.7°F23.7°C 25.5°F-3.6°C 16% 2.2 mph N3.5 kmh N 3.8 mph6.1 kmh 29.83 in1010.2 mb 0.00 in0.0 mm 0.00 in0.0 mm 0.00 in0.0 mm
07:40 PM 74.7°F23.7°C 25.5°F-3.6°C 16% 3.1 mph NNE5.0 kmh NNE 5.4 mph8.7 kmh 29.83 in1010.2 mb 0.00 in0.0 mm 0.00 in0.0 mm 0.00 in0.0 mm
07:50 PM 74.3°F23.5°C 25.2°F-3.8°C 16% 0.7 mph N1.1 kmh N 4.5 mph7.2 kmh 29.83 in1010.2 mb 0.00 in0.0 mm 0.00 in0.0 mm 0.00 in0.0 mm
08:00 PM 73.8°F23.2°C 24.8°F-4.0°C 16% 2.2 mph N3.5 kmh N 8.3 mph13.4 kmh 29.84 in1010.5 mb 0.00 in0.0 mm 0.00 in0.0 mm 0.00 in0.0 mm
08:10 PM 73.0°F22.8°C 19.3°F-7.1°C 13% 2.2 mph NW3.5 kmh NW 3.8 mph6.1 kmh 29.83 in1010.2 mb 0.00 in0.0 mm 0.00 in0.0 mm 0.00 in0.0 mm
08:20 PM 72.7°F22.6°C 19.0°F-7.2°C 13% 2.2 mph NNW3.5 kmh NNW 6.9 mph11.1 kmh 29.84 in1010.5 mb 0.00 in0.0 mm 0.00 in0.0 mm 0.00 in0.0 mm
08:30 PM 72.3°F22.4°C 18.8°F-7.3°C 13% 3.1 mph NW5.0 kmh NW 4.5 mph7.2 kmh 29.84 in1010.5 mb 0.00 in0.0 mm 0.00 in0.0 mm 0.00 in0.0 mm
08:40 PM 72.5°F22.5°C 18.9°F-7.3°C 13% 2.2 mph NW3.5 kmh NW 5.4 mph8.7 kmh 29.84 in1010.5 mb 0.00 in0.0 mm 0.00 in0.0 mm 0.00 in0.0 mm